createdAt,value
2017-11-17T00:00:57.886Z,2.30
2017-11-17T00:02:00.292Z,2.30
2017-11-17T00:03:01.594Z,2.30
2017-11-17T00:04:03.649Z,2.30
2017-11-17T00:05:05.685Z,2.30
2017-11-17T00:06:06.993Z,2.30
2017-11-17T00:07:08.625Z,2.30
2017-11-17T00:08:09.931Z,2.30
2017-11-17T00:09:11.216Z,2.20
2017-11-17T00:10:12.489Z,2.20
2017-11-17T00:11:14.520Z,2.30
2017-11-17T00:12:16.335Z,2.20
2017-11-17T00:13:17.637Z,2.30
2017-11-17T00:14:19.689Z,2.30
2017-11-17T00:15:21.737Z,2.30
2017-11-17T00:16:23.793Z,2.30
2017-11-17T00:17:26.109Z,2.30
2017-11-17T00:18:27.417Z,2.20
2017-11-17T00:19:28.753Z,2.20
2017-11-17T00:20:30.775Z,2.30
2017-11-17T00:21:32.073Z,2.20
2017-11-17T00:22:33.389Z,2.20
2017-11-17T00:23:34.677Z,2.20
2017-11-17T00:24:36.008Z,2.20
2017-11-17T00:25:37.308Z,2.20
2017-11-17T00:26:38.606Z,2.20
2017-11-17T00:27:40.682Z,2.20
2017-11-17T00:28:41.977Z,2.20
2017-11-17T00:29:43.279Z,2.20
2017-11-17T00:30:44.584Z,2.20
2017-11-17T00:31:46.639Z,2.10
2017-11-17T00:32:48.695Z,2.10
2017-11-17T00:33:57.080Z,2.10
2017-11-17T00:34:58.468Z,2.10
2017-11-17T00:35:59.818Z,2.10
2017-11-17T00:37:01.106Z,2.10
2017-11-17T00:38:03.508Z,2.00
2017-11-17T00:39:04.803Z,2.00
2017-11-17T00:40:06.829Z,1.90
2017-11-17T00:41:08.113Z,1.90
2017-11-17T00:42:10.140Z,1.90
2017-11-17T00:43:11.736Z,1.90
2017-11-17T00:44:13.024Z,2.00
2017-11-17T00:45:14.305Z,2.00
2017-11-17T00:46:15.576Z,2.00
2017-11-17T00:47:16.856Z,2.10
2017-11-17T00:48:19.297Z,2.10
2017-11-17T00:49:20.592Z,2.10
2017-11-17T00:50:21.890Z,2.10
2017-11-17T00:51:23.954Z,2.10
2017-11-17T00:52:25.256Z,2.10
2017-11-17T00:53:26.861Z,2.10
2017-11-17T00:54:28.174Z,2.20
2017-11-17T00:55:29.484Z,2.20
2017-11-17T00:56:30.785Z,2.20
2017-11-17T00:57:32.068Z,2.20
2017-11-17T00:58:34.401Z,2.20
2017-11-17T00:59:35.709Z,2.20
2017-11-17T01:00:36.995Z,2.20
2017-11-17T01:01:39.031Z,2.30
2017-11-17T01:02:40.333Z,2.30
2017-11-17T01:03:41.908Z,2.30
2017-11-17T01:04:43.200Z,2.30
2017-11-17T01:05:44.504Z,2.30
2017-11-17T01:06:45.796Z,2.30
2017-11-17T01:07:47.070Z,2.30
2017-11-17T01:08:48.680Z,2.30
2017-11-17T01:09:49.969Z,2.30
2017-11-17T01:10:52.005Z,2.20
2017-11-17T01:11:53.294Z,2.20
2017-11-17T01:12:54.582Z,2.20
2017-11-17T01:13:56.113Z,2.20
2017-11-17T01:14:57.405Z,2.20
2017-11-17T01:15:58.709Z,2.30
2017-11-17T01:16:59.984Z,2.20
2017-11-17T01:18:01.284Z,2.30
2017-11-17T01:19:02.883Z,2.30
2017-11-17T01:20:04.201Z,2.30
2017-11-17T01:21:05.505Z,2.30
2017-11-17T01:22:06.792Z,2.30
2017-11-17T01:23:08.076Z,2.30
2017-11-17T01:24:09.780Z,2.30
2017-11-17T01:25:11.068Z,2.30
2017-11-17T01:26:13.102Z,2.30
2017-11-17T01:27:14.404Z,2.30
2017-11-17T01:28:15.689Z,2.30
2017-11-17T01:29:17.031Z,2.30
2017-11-17T01:30:18.329Z,2.20
2017-11-17T01:31:19.638Z,2.20
2017-11-17T01:32:20.927Z,2.20
2017-11-17T01:33:22.229Z,2.20
2017-11-17T01:34:23.873Z,2.30
2017-11-17T01:35:25.171Z,2.30
2017-11-17T01:36:27.213Z,2.30
2017-11-17T01:37:28.513Z,2.30
2017-11-17T01:38:29.813Z,2.40
2017-11-17T01:39:32.158Z,2.30
2017-11-17T01:40:34.207Z,2.30
2017-11-17T01:41:35.528Z,2.30
2017-11-17T01:42:36.837Z,2.30
2017-11-17T01:43:38.136Z,2.30
2017-11-17T01:44:40.534Z,2.20
2017-11-17T01:45:41.840Z,2.20
2017-11-17T01:46:43.903Z,2.20
2017-11-17T01:47:45.220Z,2.20
2017-11-17T01:48:47.266Z,2.30
2017-11-17T01:49:48.832Z,2.30
2017-11-17T01:50:50.868Z,2.40
2017-11-17T01:51:52.184Z,2.30
2017-11-17T01:52:53.480Z,2.40
2017-11-17T01:53:54.771Z,2.40
2017-11-17T01:54:56.381Z,2.40
2017-11-17T01:55:57.734Z,2.40
2017-11-17T01:56:59.065Z,2.40
2017-11-17T01:58:00.428Z,2.40
2017-11-17T01:59:01.760Z,2.40
2017-11-17T02:00:03.578Z,2.30
2017-11-17T02:01:04.889Z,2.40
2017-11-17T02:02:19.067Z,2.40
2017-11-17T02:03:21.247Z,2.50
2017-11-17T02:04:22.609Z,2.50
2017-11-17T02:05:24.902Z,2.50
2017-11-17T02:06:26.240Z,2.50
2017-11-17T02:07:27.548Z,2.50
2017-11-17T02:08:29.617Z,2.50
2017-11-17T02:09:30.933Z,2.50
2017-11-17T02:10:32.540Z,2.50
2017-11-17T02:11:33.873Z,2.50
2017-11-17T02:12:35.190Z,2.50
2017-11-17T02:13:36.525Z,2.50
2017-11-17T02:14:37.860Z,2.60
2017-11-17T02:15:39.518Z,2.60
2017-11-17T02:16:40.836Z,2.60
2017-11-17T02:17:42.872Z,2.50
2017-11-17T02:18:44.931Z,2.50
2017-11-17T02:19:46.984Z,2.60
2017-11-17T02:20:49.078Z,2.60
2017-11-17T02:21:50.396Z,2.60
2017-11-17T02:22:51.714Z,2.60
2017-11-17T02:23:53.775Z,2.50
2017-11-17T02:24:55.849Z,2.50
2017-11-17T02:25:57.477Z,2.50
2017-11-17T02:26:59.558Z,2.60
2017-11-17T02:28:00.885Z,2.50
2017-11-17T02:29:02.225Z,2.60
2017-11-17T02:30:03.565Z,2.60
2017-11-17T02:31:05.167Z,2.60
2017-11-17T02:32:06.502Z,2.60
2017-11-17T02:33:07.844Z,2.50
2017-11-17T02:34:09.149Z,2.50
2017-11-17T02:35:10.497Z,2.50
2017-11-17T02:36:12.129Z,2.50
2017-11-17T02:37:13.460Z,2.50
2017-11-17T02:38:14.792Z,2.50
2017-11-17T02:39:16.135Z,2.60
2017-11-17T02:40:17.473Z,2.60
2017-11-17T02:41:19.123Z,2.60
2017-11-17T02:42:20.449Z,2.70
2017-11-17T02:43:21.776Z,2.70
2017-11-17T02:44:23.100Z,2.60
2017-11-17T02:45:25.173Z,2.60
2017-11-17T02:46:26.848Z,2.60
2017-11-17T02:47:28.177Z,2.60
2017-11-17T02:48:29.502Z,2.60
2017-11-17T02:49:30.825Z,2.60
2017-11-17T02:50:32.927Z,2.60
2017-11-17T02:51:34.332Z,2.60
2017-11-17T02:52:35.669Z,2.60
2017-11-17T02:53:37.001Z,2.50
2017-11-17T02:54:39.074Z,2.50
2017-11-17T02:55:40.404Z,2.50
2017-11-17T02:56:42.173Z,2.50
2017-11-17T02:57:43.530Z,2.50
2017-11-17T02:58:44.875Z,2.50
2017-11-17T02:59:46.196Z,2.40
2017-11-17T03:00:47.520Z,2.40
2017-11-17T03:01:49.165Z,2.40
2017-11-17T03:02:50.468Z,2.50
2017-11-17T03:03:52.539Z,2.50
2017-11-17T03:04:53.845Z,2.50
2017-11-17T03:05:55.209Z,2.50
2017-11-17T03:06:57.555Z,2.50
2017-11-17T03:07:59.606Z,2.50
2017-11-17T03:09:00.952Z,2.50
2017-11-17T03:10:03.025Z,2.40
2017-11-17T03:11:04.360Z,2.40
2017-11-17T03:12:06.341Z,2.40
2017-11-17T03:13:07.661Z,2.40
2017-11-17T03:14:08.977Z,2.40
2017-11-17T03:15:11.064Z,2.40
2017-11-17T03:16:12.373Z,2.40
2017-11-17T03:17:14.730Z,2.30
2017-11-17T03:18:16.784Z,2.40
2017-11-17T03:19:18.855Z,2.30
2017-11-17T03:20:20.192Z,2.30
2017-11-17T03:21:22.275Z,2.40
2017-11-17T03:22:23.925Z,2.40
2017-11-17T03:23:25.242Z,2.40
2017-11-17T03:24:26.570Z,2.40
2017-11-17T03:25:27.911Z,2.50
2017-11-17T03:26:29.260Z,2.50
2017-11-17T03:27:30.915Z,2.50
2017-11-17T03:28:32.239Z,2.50
2017-11-17T03:29:33.573Z,2.50
2017-11-17T03:30:34.917Z,2.60
2017-11-17T03:31:36.220Z,2.60
2017-11-17T03:32:37.825Z,2.50
2017-11-17T03:33:39.133Z,2.50
2017-11-17T03:34:40.451Z,2.50
2017-11-17T03:35:42.520Z,2.40
2017-11-17T03:36:44.570Z,2.40
2017-11-17T03:37:46.961Z,2.40
2017-11-17T03:38:48.308Z,2.40
2017-11-17T03:39:49.609Z,2.40
2017-11-17T03:40:51.685Z,2.40
2017-11-17T03:41:53.016Z,2.40
2017-11-17T03:42:54.602Z,2.40
2017-11-17T03:43:55.904Z,2.50
2017-11-17T03:44:57.201Z,2.50
2017-11-17T03:45:58.530Z,2.50
2017-11-17T03:46:59.866Z,2.50
2017-11-17T03:48:01.478Z,2.50
2017-11-17T03:49:02.808Z,2.50
2017-11-17T03:50:04.100Z,2.50
2017-11-17T03:51:05.412Z,2.50
2017-11-17T03:52:06.711Z,2.40
2017-11-17T03:53:08.092Z,2.40
2017-11-17T03:54:09.400Z,2.40
2017-11-17T03:55:10.721Z,2.30
2017-11-17T03:56:12.025Z,2.40
2017-11-17T03:57:13.401Z,2.40
2017-11-17T03:58:15.097Z,2.30
2017-11-17T03:59:16.393Z,2.40
2017-11-17T04:00:17.721Z,2.40
2017-11-17T04:01:19.085Z,2.40
2017-11-17T04:02:21.145Z,2.40
2017-11-17T04:03:23.500Z,2.40
2017-11-17T04:04:24.832Z,2.40
2017-11-17T04:05:26.142Z,2.40
2017-11-17T04:06:28.220Z,2.50
2017-11-17T04:07:29.549Z,2.50
2017-11-17T04:08:31.518Z,2.50
2017-11-17T04:09:32.853Z,2.50
2017-11-17T04:10:34.160Z,2.50
2017-11-17T04:11:36.221Z,2.50
2017-11-17T04:12:38.248Z,2.50
2017-11-17T04:13:39.943Z,2.50
2017-11-17T04:14:41.281Z,2.50
2017-11-17T04:15:42.582Z,2.60
2017-11-17T04:16:44.659Z,2.60
2017-11-17T04:17:45.963Z,2.50
2017-11-17T04:18:48.584Z,2.50
2017-11-17T04:19:49.983Z,2.50
2017-11-17T04:20:52.048Z,2.50
2017-11-17T04:21:54.128Z,2.50
2017-11-17T04:22:55.423Z,2.50
2017-11-17T04:23:57.115Z,2.50
2017-11-17T04:24:58.454Z,2.50
2017-11-17T04:25:59.781Z,2.50
2017-11-17T04:27:01.090Z,2.60
2017-11-17T04:28:03.126Z,2.60
2017-11-17T04:29:04.739Z,2.50
2017-11-17T04:30:06.056Z,2.60
2017-11-17T04:31:07.365Z,2.50
2017-11-17T04:32:09.413Z,2.50
2017-11-17T04:33:10.728Z,2.50
2017-11-17T04:34:12.448Z,2.50
2017-11-17T04:35:13.777Z,2.50
2017-11-17T04:36:15.089Z,2.50
2017-11-17T04:37:17.142Z,2.50
2017-11-17T04:38:19.208Z,2.40
2017-11-17T04:39:21.504Z,2.40
2017-11-17T04:40:22.805Z,2.30
2017-11-17T04:41:24.849Z,2.30
2017-11-17T04:42:27.518Z,2.40
2017-11-17T04:43:29.588Z,2.40
2017-11-17T04:44:32.065Z,2.40
2017-11-17T04:45:33.414Z,2.40
2017-11-17T04:46:34.736Z,2.50
2017-11-17T04:47:36.024Z,2.50
2017-11-17T04:48:37.309Z,2.50
2017-11-17T04:49:38.648Z,2.40
2017-11-17T04:50:39.957Z,2.40
2017-11-17T04:51:41.280Z,2.40
2017-11-17T04:52:42.599Z,2.40
2017-11-17T04:53:43.918Z,2.40
2017-11-17T04:54:45.561Z,2.40
2017-11-17T04:55:46.871Z,2.40
2017-11-17T04:56:48.900Z,2.40
2017-11-17T04:57:50.240Z,2.40
2017-11-17T04:58:51.530Z,2.40
2017-11-17T04:59:53.125Z,2.40
2017-11-17T05:00:54.439Z,2.40
2017-11-17T05:01:55.765Z,2.40
2017-11-17T05:02:57.062Z,2.40
2017-11-17T05:03:59.127Z,2.40
2017-11-17T05:05:00.740Z,2.40
2017-11-17T05:06:03.193Z,2.50
2017-11-17T05:07:05.305Z,2.40
2017-11-17T05:08:06.653Z,2.40
2017-11-17T05:09:07.985Z,2.50
2017-11-17T05:10:09.733Z,2.50
2017-11-17T05:11:11.041Z,2.50
2017-11-17T05:12:13.107Z,2.40
2017-11-17T05:13:14.420Z,2.40
2017-11-17T05:14:16.492Z,2.40
2017-11-17T05:15:18.825Z,2.40
2017-11-17T05:16:20.866Z,2.40
2017-11-17T05:17:23.644Z,2.30
2017-11-17T05:18:25.011Z,2.30
2017-11-17T05:19:27.035Z,2.40
2017-11-17T05:20:28.653Z,2.40
2017-11-17T05:21:29.941Z,2.40
2017-11-17T05:22:31.972Z,2.40
2017-11-17T05:23:33.262Z,2.40
2017-11-17T05:24:34.588Z,2.40
2017-11-17T05:25:36.255Z,2.40
2017-11-17T05:26:37.542Z,2.40
2017-11-17T05:27:38.876Z,2.50
2017-11-17T05:28:40.160Z,2.50
2017-11-17T05:29:41.473Z,2.50
2017-11-17T05:30:43.867Z,2.60
2017-11-17T05:31:45.208Z,2.60
2017-11-17T05:32:46.512Z,2.60
2017-11-17T05:33:48.537Z,2.70
2017-11-17T05:34:49.850Z,2.60
2017-11-17T05:35:51.487Z,2.60
2017-11-17T05:36:52.785Z,2.60
2017-11-17T05:37:54.830Z,2.60
2017-11-17T05:38:56.869Z,2.50
2017-11-17T05:39:58.187Z,2.50
2017-11-17T05:40:59.760Z,2.60
2017-11-17T05:42:01.069Z,2.60
2017-11-17T05:43:02.353Z,2.60
2017-11-17T05:44:04.385Z,2.50
2017-11-17T05:45:05.721Z,2.50
2017-11-17T05:46:07.302Z,2.50
2017-11-17T05:47:08.617Z,2.40
2017-11-17T05:48:09.906Z,2.40
2017-11-17T05:49:11.204Z,2.40
2017-11-17T05:50:13.234Z,2.40
2017-11-17T05:51:14.569Z,2.40
2017-11-17T05:52:15.852Z,2.50
2017-11-17T05:53:17.149Z,2.50
2017-11-17T05:54:18.460Z,2.50
2017-11-17T05:55:19.749Z,2.60
2017-11-17T05:56:22.138Z,2.60
2017-11-17T05:57:23.440Z,2.60
2017-11-17T05:58:25.543Z,2.70
2017-11-17T05:59:26.840Z,2.70
2017-11-17T06:00:28.877Z,2.70
2017-11-17T06:01:30.472Z,2.70
2017-11-17T06:02:31.768Z,2.70
2017-11-17T06:03:33.808Z,2.70
2017-11-17T06:04:35.109Z,2.70
2017-11-17T06:05:36.385Z,2.80
2017-11-17T06:06:37.708Z,2.80
2017-11-17T06:07:39.019Z,2.80
2017-11-17T06:08:40.313Z,2.80
2017-11-17T06:09:42.378Z,2.80
2017-11-17T06:10:44.428Z,2.80
2017-11-17T06:11:46.821Z,2.80
2017-11-17T06:12:48.109Z,2.80
2017-11-17T06:13:49.401Z,2.80
2017-11-17T06:14:50.690Z,2.80
2017-11-17T06:15:52.736Z,2.80
2017-11-17T06:16:54.342Z,2.80
2017-11-17T06:17:55.620Z,2.80
2017-11-17T06:18:56.904Z,2.80
2017-11-17T06:19:58.200Z,2.80
2017-11-17T06:21:00.260Z,2.70
2017-11-17T06:22:02.584Z,2.70
2017-11-17T06:23:03.900Z,2.70
2017-11-17T06:24:05.235Z,2.70
2017-11-17T06:25:06.561Z,2.70
2017-11-17T06:26:07.860Z,2.70
2017-11-17T06:27:09.564Z,2.70
2017-11-17T06:28:10.870Z,2.70
2017-11-17T06:29:12.913Z,2.80
2017-11-17T06:30:14.969Z,2.80
2017-11-17T06:31:17.005Z,2.80
2017-11-17T06:32:18.589Z,2.80
2017-11-17T06:33:19.871Z,2.90
2017-11-17T06:34:21.160Z,2.90
2017-11-17T06:35:22.453Z,2.80
2017-11-17T06:36:23.769Z,2.80
2017-11-17T06:37:25.460Z,2.80
2017-11-17T06:38:27.495Z,2.80
2017-11-17T06:39:28.822Z,2.80
2017-11-17T06:40:30.127Z,2.80
2017-11-17T06:41:31.423Z,2.80
2017-11-17T06:42:32.752Z,2.80
2017-11-17T06:43:34.041Z,2.80
2017-11-17T06:44:35.333Z,2.80
2017-11-17T06:45:36.609Z,2.70
2017-11-17T06:46:37.921Z,2.80
2017-11-17T06:47:39.980Z,2.80
2017-11-17T06:48:42.014Z,2.80
2017-11-17T06:49:43.338Z,2.80
2017-11-17T06:50:44.636Z,2.90
2017-11-17T06:51:45.931Z,2.80
2017-11-17T06:52:47.597Z,2.80
2017-11-17T06:53:49.625Z,2.80
2017-11-17T06:54:50.913Z,2.80
2017-11-17T06:55:52.200Z,2.80
2017-11-17T06:56:53.485Z,2.80
2017-11-17T06:57:55.042Z,2.80
2017-11-17T06:58:56.385Z,2.80
2017-11-17T06:59:57.673Z,2.80
2017-11-17T07:00:59.716Z,2.80
2017-11-17T07:02:01.764Z,2.90
2017-11-17T07:03:03.321Z,2.90
2017-11-17T07:04:05.346Z,2.90
2017-11-17T07:05:06.646Z,2.90
2017-11-17T07:06:07.959Z,2.90
2017-11-17T07:07:09.262Z,2.90
2017-11-17T07:08:10.596Z,2.90
2017-11-17T07:09:11.902Z,2.80
2017-11-17T07:10:13.180Z,2.90
2017-11-17T07:11:14.469Z,2.90
2017-11-17T07:12:15.773Z,2.90
2017-11-17T07:13:17.832Z,2.90
2017-11-17T07:14:19.885Z,2.90
2017-11-17T07:15:21.929Z,2.90
2017-11-17T07:16:23.225Z,2.90
2017-11-17T07:17:24.519Z,2.90
2017-11-17T07:18:26.592Z,3.00
2017-11-17T07:19:27.888Z,3.00
2017-11-17T07:20:29.176Z,3.00
2017-11-17T07:21:30.474Z,2.90
2017-11-17T07:22:31.766Z,3.00
2017-11-17T07:23:33.346Z,3.00
2017-11-17T07:24:34.693Z,3.00
2017-11-17T07:25:35.992Z,3.00
2017-11-17T07:26:37.298Z,3.00
2017-11-17T07:27:38.594Z,2.90
2017-11-17T07:28:40.200Z,3.00
2017-11-17T07:29:41.517Z,2.90
2017-11-17T07:30:42.805Z,2.90
2017-11-17T07:31:44.106Z,2.90
2017-11-17T07:32:45.396Z,2.90
2017-11-17T07:33:47.001Z,2.90
2017-11-17T07:34:49.017Z,3.00
2017-11-17T07:35:51.054Z,3.00
2017-11-17T07:36:53.096Z,3.10
2017-11-17T07:37:54.396Z,3.10
2017-11-17T07:38:55.725Z,3.10
2017-11-17T07:39:57.006Z,3.10
2017-11-17T07:40:58.302Z,3.20
2017-11-17T07:41:59.583Z,3.20
2017-11-17T07:43:00.869Z,3.20
2017-11-17T07:44:02.195Z,3.20
2017-11-17T07:45:03.491Z,3.20
2017-11-17T07:46:04.792Z,3.20
2017-11-17T07:47:06.086Z,3.20
2017-11-17T07:48:08.130Z,3.20
2017-11-17T07:49:09.728Z,3.10
2017-11-17T07:50:11.019Z,3.20
2017-11-17T07:51:12.322Z,3.20
2017-11-17T07:52:13.601Z,3.20
2017-11-17T07:53:15.631Z,3.10
2017-11-17T07:54:16.940Z,3.10
2017-11-17T07:55:18.221Z,3.10
2017-11-17T07:56:19.521Z,3.10
2017-11-17T07:57:20.818Z,3.10
2017-11-17T07:58:22.117Z,3.20
2017-11-17T07:59:23.500Z,3.20
2017-11-17T08:00:24.810Z,3.30
2017-11-17T08:01:26.103Z,3.30
2017-11-17T08:02:27.410Z,3.40
2017-11-17T08:03:29.443Z,3.50
2017-11-17T08:04:32.062Z,3.50
2017-11-17T08:05:33.352Z,3.50
2017-11-17T08:06:35.375Z,3.60
2017-11-17T08:07:36.687Z,3.60
2017-11-17T08:08:38.003Z,3.60
2017-11-17T08:09:39.566Z,3.60
2017-11-17T08:10:40.877Z,3.70
2017-11-17T08:11:42.175Z,3.70
2017-11-17T08:12:43.465Z,3.80
2017-11-17T08:13:44.753Z,3.80
2017-11-17T08:14:46.360Z,3.90
2017-11-17T08:15:47.646Z,4.00
2017-11-17T08:16:49.001Z,4.10
2017-11-17T08:19:24.950Z,4.40
2017-11-17T08:20:27.036Z,4.60
2017-11-17T08:21:28.372Z,4.60
2017-11-17T08:22:29.681Z,4.70
2017-11-17T08:23:31.741Z,4.80
2017-11-17T08:24:33.792Z,4.80
2017-11-17T08:25:35.859Z,4.80
2017-11-17T08:26:37.906Z,4.70
2017-11-17T08:27:39.941Z,4.60
2017-11-17T08:28:41.219Z,4.60
2017-11-17T08:29:42.523Z,4.40
2017-11-17T08:30:44.125Z,4.30
2017-11-17T08:31:45.426Z,4.20
2017-11-17T08:32:47.466Z,4.10
2017-11-17T08:33:49.514Z,4.10
2017-11-17T08:34:50.801Z,4.10
2017-11-17T08:35:52.113Z,4.10
2017-11-17T08:36:54.162Z,4.10
2017-11-17T08:37:56.980Z,4.10
2017-11-17T08:38:58.339Z,4.10
2017-11-17T08:39:59.665Z,4.10
2017-11-17T08:41:01.798Z,4.20
2017-11-17T08:42:03.098Z,4.10
2017-11-17T08:43:05.153Z,4.10
2017-11-17T08:44:07.215Z,4.10
2017-11-17T08:45:09.336Z,4.10
2017-11-17T08:46:10.953Z,4.10
2017-11-17T08:47:12.270Z,4.10
2017-11-17T08:48:13.581Z,4.20
2017-11-17T08:49:14.876Z,4.20
2017-11-17T08:50:16.186Z,4.20
2017-11-17T08:51:17.772Z,4.20
2017-11-17T08:52:19.100Z,4.20
2017-11-17T08:53:20.389Z,4.20
2017-11-17T08:54:22.467Z,4.10
2017-11-17T08:55:23.783Z,4.10
2017-11-17T08:56:26.275Z,4.10
2017-11-17T08:57:27.622Z,4.10
2017-11-17T08:58:28.913Z,4.10
2017-11-17T08:59:30.999Z,4.10
2017-11-17T09:00:32.337Z,4.10
2017-11-17T09:01:33.957Z,4.10
2017-11-17T09:02:35.986Z,4.00
2017-11-17T09:03:37.272Z,4.00
2017-11-17T09:04:38.576Z,4.00
2017-11-17T09:05:39.864Z,4.00
2017-11-17T09:06:41.523Z,4.00
2017-11-17T09:07:42.849Z,4.00
2017-11-17T09:08:44.129Z,4.10
2017-11-17T09:09:45.467Z,4.10
2017-11-17T09:10:46.773Z,4.10
2017-11-17T09:11:48.346Z,4.10
2017-11-17T09:12:49.646Z,4.20
2017-11-17T09:13:50.933Z,4.10
2017-11-17T09:14:52.968Z,4.20
2017-11-17T09:15:54.259Z,4.20
2017-11-17T09:16:55.847Z,4.20
2017-11-17T09:17:57.146Z,4.20
2017-11-17T09:18:58.436Z,4.20
2017-11-17T09:19:59.745Z,4.10
2017-11-17T09:21:01.071Z,4.10
2017-11-17T09:22:02.663Z,4.10
2017-11-17T09:23:04.704Z,4.20
2017-11-17T09:24:06.001Z,4.20
2017-11-17T09:25:07.302Z,4.10
2017-11-17T09:26:09.344Z,4.20
2017-11-17T09:27:10.685Z,4.20
2017-11-17T09:28:12.726Z,4.20
2017-11-17T09:29:14.021Z,4.10
2017-11-17T09:30:15.338Z,4.20
2017-11-17T09:31:16.663Z,4.20
2017-11-17T09:32:18.747Z,4.10
2017-11-17T09:33:20.064Z,4.10
2017-11-17T09:34:22.117Z,4.10
2017-11-17T09:35:24.160Z,4.20
2017-11-17T09:36:26.221Z,4.10
2017-11-17T09:37:28.545Z,4.10
2017-11-17T09:38:29.896Z,4.10
2017-11-17T09:39:31.195Z,4.10
2017-11-17T09:40:32.512Z,4.10
2017-11-17T09:41:33.798Z,4.20
2017-11-17T09:42:36.112Z,4.20
2017-11-17T09:43:37.406Z,4.20
2017-11-17T09:44:38.711Z,4.20
2017-11-17T09:45:40.029Z,4.20
2017-11-17T09:46:41.357Z,4.20
2017-11-17T09:47:43.041Z,4.30
2017-11-17T09:48:44.356Z,4.30
2017-11-17T09:49:45.677Z,4.40
2017-11-17T09:50:47.010Z,4.50
2017-11-17T09:51:48.315Z,4.50
2017-11-17T09:52:49.925Z,4.60
2017-11-17T09:53:51.248Z,4.60
2017-11-17T09:54:52.573Z,4.60
2017-11-17T09:55:53.858Z,4.60
2017-11-17T09:56:55.177Z,4.60
2017-11-17T09:57:56.784Z,4.60
2017-11-17T09:58:58.837Z,4.50
2017-11-17T10:00:00.940Z,4.50
2017-11-17T10:01:02.321Z,4.40
2017-11-17T10:02:03.631Z,4.50
2017-11-17T10:03:05.006Z,4.50
2017-11-17T10:04:07.082Z,4.60
2017-11-17T10:05:08.400Z,4.60
2017-11-17T10:06:10.475Z,4.70
2017-11-17T10:07:11.801Z,4.70
2017-11-17T10:08:14.197Z,4.70
2017-11-17T10:09:15.513Z,4.70
2017-11-17T10:10:16.836Z,4.70
2017-11-17T10:11:18.870Z,4.80
2017-11-17T10:12:20.937Z,4.80
2017-11-17T10:13:23.271Z,4.80
2017-11-17T10:14:24.596Z,4.70
2017-11-17T10:15:25.912Z,4.80
2017-11-17T10:16:27.225Z,4.80
2017-11-17T10:17:29.297Z,4.70
2017-11-17T10:18:31.158Z,4.70
2017-11-17T10:19:32.473Z,4.80
2017-11-17T10:20:34.553Z,4.80
2017-11-17T10:21:35.875Z,4.80
2017-11-17T10:22:37.226Z,4.80
2017-11-17T10:23:38.843Z,4.80
2017-11-17T10:24:40.897Z,4.90
2017-11-17T10:25:42.961Z,5.00
2017-11-17T10:26:45.028Z,5.00
2017-11-17T10:27:46.353Z,5.00
2017-11-17T10:28:49.536Z,5.00
2017-11-17T10:29:51.578Z,5.00
2017-11-17T10:30:53.617Z,5.00
2017-11-17T10:31:54.948Z,5.00
2017-11-17T10:32:56.256Z,5.00
2017-11-17T10:33:57.613Z,5.00
2017-11-17T10:34:58.905Z,5.00
2017-11-17T10:36:00.226Z,5.00
2017-11-17T10:37:02.312Z,5.00
2017-11-17T10:38:04.381Z,5.00
2017-11-17T10:39:05.738Z,5.00
2017-11-17T10:40:07.060Z,5.00
2017-11-17T10:41:08.382Z,5.00
2017-11-17T10:42:09.685Z,5.00
2017-11-17T10:43:11.757Z,4.90
2017-11-17T10:44:13.424Z,4.90
2017-11-17T10:45:14.741Z,4.90
2017-11-17T10:46:16.046Z,4.90
2017-11-17T10:47:17.358Z,4.90
2017-11-17T10:48:18.663Z,4.90
2017-11-17T10:49:20.250Z,4.80
2017-11-17T10:50:21.543Z,4.80
2017-11-17T10:51:22.856Z,4.80
2017-11-17T10:52:24.910Z,4.70
2017-11-17T10:53:26.966Z,4.70
2017-11-17T10:54:29.290Z,4.70
2017-11-17T10:55:30.645Z,4.70
2017-11-17T10:56:31.997Z,4.70
2017-11-17T10:57:34.050Z,4.80
2017-11-17T10:58:35.366Z,4.70
2017-11-17T10:59:38.632Z,4.80
2017-11-17T11:00:39.989Z,4.80
2017-11-17T11:01:42.033Z,4.80
2017-11-17T11:02:43.370Z,4.80
2017-11-17T11:03:44.674Z,4.80
2017-11-17T11:04:46.299Z,4.80
2017-11-17T11:05:48.337Z,4.90
2017-11-17T11:06:49.642Z,4.90
2017-11-17T11:07:50.975Z,4.90
2017-11-17T11:08:52.296Z,5.00
2017-11-17T11:09:53.641Z,5.00
2017-11-17T11:11:01.086Z,5.00
2017-11-17T11:12:03.156Z,5.00
2017-11-17T11:13:05.236Z,5.00
2017-11-17T11:14:06.543Z,5.00
2017-11-17T11:15:08.601Z,5.10
2017-11-17T11:16:09.910Z,5.10
2017-11-17T11:17:11.220Z,5.10
2017-11-17T11:18:12.549Z,5.10
2017-11-17T11:19:13.873Z,5.10
2017-11-17T11:20:15.477Z,5.10
2017-11-17T11:21:17.528Z,5.10
2017-11-17T11:22:18.846Z,5.10
2017-11-17T11:23:20.161Z,5.10
2017-11-17T11:24:21.502Z,5.10
2017-11-17T11:25:22.958Z,5.10
2017-11-17T11:26:24.274Z,5.10
2017-11-17T11:27:25.587Z,5.10
2017-11-17T11:28:26.917Z,5.10
2017-11-17T11:29:28.982Z,5.10
2017-11-17T11:30:30.644Z,5.10
2017-11-17T11:31:31.965Z,5.10
2017-11-17T11:32:33.266Z,5.10
2017-11-17T11:33:34.585Z,5.10
2017-11-17T11:34:35.902Z,5.00
2017-11-17T11:35:37.292Z,5.00
2017-11-17T11:36:39.341Z,5.00
2017-11-17T11:37:40.657Z,5.00
2017-11-17T11:38:41.970Z,5.00
2017-11-17T11:39:43.305Z,5.00
2017-11-17T11:40:44.669Z,5.00
2017-11-17T11:41:45.970Z,5.00
2017-11-17T11:42:47.274Z,5.00
2017-11-17T11:43:49.300Z,5.00
2017-11-17T11:44:50.615Z,5.00
2017-11-17T11:45:51.963Z,5.00
2017-11-17T11:46:53.998Z,5.10
2017-11-17T11:47:55.300Z,5.10
2017-11-17T11:48:57.364Z,5.20
2017-11-17T11:49:59.393Z,5.20
2017-11-17T11:51:00.985Z,5.20
2017-11-17T11:52:02.290Z,5.20
2017-11-17T11:53:04.315Z,5.30
2017-11-17T11:54:05.621Z,5.30
2017-11-17T11:55:06.921Z,5.30
2017-11-17T11:56:16.285Z,5.40
2017-11-17T11:57:17.589Z,5.30
2017-11-17T11:58:19.613Z,5.40
2017-11-17T11:59:20.935Z,5.40
2017-11-17T12:00:22.261Z,5.50
2017-11-17T12:01:23.799Z,5.50
2017-11-17T12:02:25.103Z,5.60
2017-11-17T12:03:27.137Z,5.60
2017-11-17T12:04:28.430Z,5.60
2017-11-17T12:05:29.729Z,5.60
2017-11-17T12:06:31.809Z,5.50
2017-11-17T12:07:33.123Z,5.50
2017-11-17T12:08:35.162Z,5.50
2017-11-17T12:09:36.446Z,5.50
2017-11-17T12:10:37.732Z,5.50
2017-11-17T12:11:39.045Z,5.50
2017-11-17T12:12:40.347Z,5.50
2017-11-17T12:13:41.653Z,5.40
2017-11-17T12:14:42.962Z,5.30
2017-11-17T12:15:44.246Z,5.30
2017-11-17T12:16:46.330Z,5.20
2017-11-17T12:17:47.621Z,5.20
2017-11-17T12:18:49.651Z,5.20
2017-11-17T12:19:50.926Z,5.20
2017-11-17T12:20:52.980Z,5.20
2017-11-17T12:21:55.293Z,5.20
2017-11-17T12:22:56.582Z,5.20
2017-11-17T12:23:58.604Z,5.20
2017-11-17T12:24:59.911Z,5.20
2017-11-17T12:26:01.228Z,5.20
2017-11-17T12:27:02.590Z,5.10
2017-11-17T12:28:03.903Z,5.10
2017-11-17T12:29:05.201Z,5.10
2017-11-17T12:30:06.509Z,5.10
2017-11-17T12:31:07.802Z,5.20
2017-11-17T12:32:10.364Z,5.20
2017-11-17T12:33:12.392Z,5.20
2017-11-17T12:34:13.701Z,5.20
2017-11-17T12:35:14.990Z,5.20
2017-11-17T12:36:17.016Z,5.20
2017-11-17T12:37:18.626Z,5.20
2017-11-17T12:38:19.917Z,5.20
2017-11-17T12:39:21.200Z,5.20
2017-11-17T12:40:22.485Z,5.20
2017-11-17T12:41:23.777Z,5.20
2017-11-17T12:42:26.143Z,5.20
2017-11-17T12:43:28.173Z,5.20
2017-11-17T12:44:29.471Z,5.20
2017-11-17T12:45:30.770Z,5.20
2017-11-17T12:46:32.079Z,5.20
2017-11-17T12:47:34.414Z,5.20
2017-11-17T12:48:35.709Z,5.20
2017-11-17T12:49:36.997Z,5.20
2017-11-17T12:50:39.021Z,5.10
2017-11-17T12:51:40.298Z,5.00
2017-11-17T12:52:42.367Z,5.00
2017-11-17T12:53:43.655Z,5.00
2017-11-17T12:54:44.966Z,5.10
2017-11-17T12:55:46.264Z,5.10
2017-11-17T12:56:48.300Z,5.10
2017-11-17T12:57:49.901Z,5.10
2017-11-17T12:58:51.196Z,5.10
2017-11-17T12:59:53.241Z,5.10
2017-11-17T13:00:54.537Z,5.10
2017-11-17T13:01:55.921Z,5.10
2017-11-17T13:02:57.256Z,5.10
2017-11-17T13:03:58.542Z,5.10
2017-11-17T13:04:59.829Z,5.10
2017-11-17T13:06:01.856Z,5.10
2017-11-17T13:07:03.145Z,5.10
2017-11-17T13:08:04.729Z,5.10
2017-11-17T13:09:06.761Z,5.20
2017-11-17T13:10:08.066Z,5.10
2017-11-17T13:11:10.094Z,5.20
2017-11-17T13:12:11.385Z,5.20
2017-11-17T13:13:12.974Z,5.20
2017-11-17T13:14:14.263Z,5.20
2017-11-17T13:15:15.569Z,5.20
2017-11-17T13:16:16.872Z,5.20
2017-11-17T13:17:18.148Z,5.20
2017-11-17T13:18:20.565Z,5.20
2017-11-17T13:19:21.879Z,5.20
2017-11-17T13:20:23.170Z,5.30
2017-11-17T13:21:24.461Z,5.30
2017-11-17T13:22:25.779Z,5.30
2017-11-17T13:23:28.056Z,5.30
2017-11-17T13:24:29.358Z,5.20
2017-11-17T13:25:31.405Z,5.20
2017-11-17T13:26:32.704Z,5.20
2017-11-17T13:27:34.032Z,5.20
2017-11-17T13:28:35.382Z,5.20
2017-11-17T13:29:36.686Z,5.10
2017-11-17T13:30:37.978Z,5.10
2017-11-17T13:31:39.271Z,5.10
2017-11-17T13:32:40.552Z,5.00
2017-11-17T13:33:42.161Z,5.10
2017-11-17T13:34:43.446Z,5.10
2017-11-17T13:35:44.740Z,5.10
2017-11-17T13:36:46.056Z,5.00
2017-11-17T13:37:47.342Z,5.00
2017-11-17T13:38:49.677Z,5.10
2017-11-17T13:39:50.980Z,5.00
2017-11-17T13:40:53.008Z,5.10
2017-11-17T13:41:54.298Z,5.10